Time;durP1;ratioP1;P1;durP2;ratioP2;P2;SDS_P1;SDS_P2;PMS_P1;PMS_P2;Temp;Humidity;BMP_temperature;BMP_pressure;BME280_temperature;BME280_humidity;BME280_pressure;Samples;Min_cycle;Max_cycle;Signal;HPM_P1;HPM_P2
2023/12/28 00:01:33;;;;;;;4.77;2.33;;;;;10.00;100467.00;;;;9820972;30;21010;-77
2023/12/28 00:06:34;;;;;;;3.33;2.10;;;;;9.90;100466.00;;;;9816629;29;20248;-78
2023/12/28 00:11:36;;;;;;;3.83;2.43;;;;;9.90;100484.00;;;;9838560;30;20651;-79
2023/12/28 00:16:37;;;;;;;4.40;2.60;;;;;9.90;100476.00;;;;9828032;30;20248;-78
2023/12/28 00:21:39;;;;;;;3.40;2.30;;;;;10.00;100480.00;;;;9832877;30;20247;-78
2023/12/28 00:26:41;;;;;;;4.87;2.40;;;;;10.10;100494.00;;;;9835767;30;20641;-80
2023/12/28 00:31:43;;;;;;;2.97;2.10;;;;;10.00;100496.00;;;;9825227;30;20304;-81
2023/12/28 00:36:44;;;;;;;3.37;2.50;;;;;10.10;100506.00;;;;9839828;30;20292;-78
2023/12/28 00:41:45;;;;;;;7.80;2.47;;;;;10.00;100516.00;;;;9838497;30;20317;-85
2023/12/28 00:46:47;;;;;;;4.97;2.10;;;;;10.10;100510.00;;;;9838137;30;20336;-85
2023/12/28 00:51:48;;;;;;;5.00;2.20;;;;;10.10;100501.00;;;;9803846;30;20259;-86
2023/12/28 00:56:49;;;;;;;6.03;2.47;;;;;10.10;100523.00;;;;9808262;30;20243;-85
2023/12/28 01:01:50;;;;;;;6.60;2.63;;;;;10.10;100515.00;;;;9838304;29;20244;-86
2023/12/28 01:06:52;;;;;;;2.90;2.07;;;;;10.10;100516.00;;;;9818933;30;20235;-86
2023/12/28 01:11:53;;;;;;;3.47;2.40;;;;;10.10;100524.00;;;;9831568;29;20232;-85
2023/12/28 01:16:55;;;;;;;4.93;2.50;;;;;10.10;100516.00;;;;9827211;29;20236;-85
2023/12/28 01:21:56;;;;;;;4.53;2.60;;;;;10.00;100521.00;;;;9827476;29;20721;-86
2023/12/28 01:26:57;;;;;;;3.77;2.70;;;;;10.00;100516.00;;;;9829966;29;20235;-86
2023/12/28 01:31:58;;;;;;;3.00;2.20;;;;;10.00;100522.00;;;;9821787;30;20248;-87
2023/12/28 01:36:59;;;;;;;3.67;2.73;;;;;10.10;100524.00;;;;9837260;29;20314;-85
2023/12/28 01:42:02;;;;;;;2.43;2.23;;;;;10.10;100543.00;;;;9830632;30;20339;-86
2023/12/28 01:47:04;;;;;;;5.00;2.40;;;;;10.10;100536.00;;;;9810179;30;20255;-85
2023/12/28 01:52:07;;;;;;;4.23;2.50;;;;;10.10;100547.00;;;;9920434;24;20242;-86
2023/12/28 01:57:08;;;;;;;5.63;2.07;;;;;10.10;100523.00;;;;9859398;29;20231;-86
2023/12/28 02:02:11;;;;;;;2.50;1.63;;;;;10.20;100541.00;;;;9869359;29;20335;-87
2023/12/28 02:07:13;;;;;;;2.63;1.47;;;;;10.20;100546.00;;;;9846064;29;20246;-87
2023/12/28 02:12:15;;;;;;;2.13;1.70;;;;;10.30;100539.00;;;;9810169;24;20238;-86
2023/12/28 02:17:27;;;;;;;4.53;2.33;;;;;10.20;100551.00;;;;9798263;30;20225;-87
2023/12/28 02:22:32;;;;;;;7.23;2.60;;;;;10.30;100550.00;;;;9807419;30;20241;-87
2023/12/28 02:27:36;;;;;;;6.40;2.07;;;;;10.30;100552.00;;;;9807216;30;20240;-86
2023/12/28 02:33:01;;;;;;;7.50;2.15;;;;;10.30;100557.00;;;;9942651;24;20239;-85
2023/12/28 02:38:06;;;;;;;3.80;2.00;;;;;10.40;100546.00;;;;9857286;29;20232;-85
2023/12/28 02:43:08;;;;;;;4.60;2.10;;;;;10.30;100559.00;;;;9904643;24;20252;-87
2023/12/28 02:48:11;;;;;;;3.50;1.80;;;;;10.40;100556.00;;;;9842105;29;20358;-86
2023/12/28 02:53:13;;;;;;;6.57;2.20;;;;;10.40;100555.00;;;;9850212;29;20232;-85
2023/12/28 02:58:14;;;;;;;4.63;2.30;;;;;10.40;100537.00;;;;9819839;30;20240;-86
2023/12/28 03:03:16;;;;;;;7.57;2.40;;;;;10.40;100546.00;;;;9853516;29;20236;-87
2023/12/28 03:08:17;;;;;;;4.73;2.40;;;;;10.40;100553.00;;;;9829463;29;20247;-85
2023/12/28 03:13:19;;;;;;;8.47;2.03;;;;;10.40;100546.00;;;;9828259;29;20236;-87
2023/12/28 03:18:20;;;;;;;4.27;2.07;;;;;10.40;100546.00;;;;9850935;29;20235;-86
2023/12/28 03:23:22;;;;;;;4.50;1.90;;;;;10.40;100539.00;;;;9832584;29;20248;-87
2023/12/28 03:28:23;;;;;;;3.80;1.77;;;;;10.40;100542.00;;;;9847072;29;20270;-86
2023/12/28 03:33:24;;;;;;;5.93;2.50;;;;;10.40;100520.00;;;;9823131;30;20236;-87
2023/12/28 03:38:27;;;;;;;8.63;2.27;;;;;10.40;100526.00;;;;9837267;29;20262;-88
2023/12/28 03:43:29;;;;;;;5.07;1.77;;;;;10.40;100523.00;;;;9824671;29;20801;-88
2023/12/28 03:48:30;;;;;;;11.30;1.97;;;;;10.40;100538.00;;;;9826222;29;20236;-86
2023/12/28 03:53:32;;;;;;;7.60;1.80;;;;;10.50;100530.00;;;;9850130;29;20243;-87
2023/12/28 03:58:33;;;;;;;8.07;1.83;;;;;10.50;100513.00;;;;9828084;29;20235;-87
2023/12/28 04:03:34;;;;;;;5.13;1.97;;;;;10.50;100542.00;;;;9829597;29;20247;-86
2023/12/28 04:08:35;;;;;;;6.10;1.70;;;;;10.40;100555.00;;;;9861861;29;20232;-83
2023/12/28 04:13:37;;;;;;;5.93;1.67;;;;;10.40;100558.00;;;;9818001;29;20213;-81
2023/12/28 04:18:38;;;;;;;7.27;1.83;;;;;10.40;100542.00;;;;9845040;29;20211;-81
2023/12/28 04:23:41;;;;;;;10.90;2.60;;;;;10.40;100538.00;;;;9834074;29;20291;-81
2023/12/28 04:28:42;;;;;;;6.73;1.90;;;;;10.40;100548.00;;;;9816570;29;20848;-81
2023/12/28 04:33:43;;;;;;;7.13;1.87;;;;;10.40;100562.00;;;;9826768;30;20226;-81
2023/12/28 04:38:45;;;;;;;6.33;2.63;;;;;10.40;100549.00;;;;9836727;29;20246;-81
2023/12/28 04:43:46;;;;;;;9.23;2.83;;;;;10.40;100552.00;;;;9824483;29;20228;-81
2023/12/28 04:48:47;;;;;;;7.97;2.20;;;;;10.30;100561.00;;;;9811435;29;20274;-81
2023/12/28 04:53:49;;;;;;;9.73;2.20;;;;;10.30;100560.00;;;;9831850;29;20235;-80
2023/12/28 04:58:50;;;;;;;6.10;2.47;;;;;10.20;100558.00;;;;9813474;29;20243;-81
2023/12/28 05:03:51;;;;;;;13.50;2.43;;;;;10.20;100578.00;;;;9821788;29;20286;-81
2023/12/28 05:08:55;;;;;;;9.97;1.93;;;;;10.10;100570.00;;;;9833661;30;20274;-81
2023/12/28 05:13:57;;;;;;;7.23;2.40;;;;;10.00;100571.00;;;;9841149;29;20240;-80
2023/12/28 05:18:58;;;;;;;11.30;3.13;;;;;10.00;100568.00;;;;9829278;29;20226;-80
2023/12/28 05:24:00;;;;;;;9.73;2.17;;;;;10.00;100580.00;;;;9815262;29;20285;-80
2023/12/28 05:29:01;;;;;;;10.10;1.97;;;;;10.00;100592.00;;;;9857957;29;20242;-81
2023/12/28 05:34:02;;;;;;;11.63;2.10;;;;;10.10;100587.00;;;;9840584;29;20285;-80
2023/12/28 05:39:04;;;;;;;10.40;2.30;;;;;10.20;100591.00;;;;9821799;29;20897;-79
2023/12/28 05:44:05;;;;;;;7.17;2.10;;;;;10.20;100599.00;;;;9812878;29;20232;-81
2023/12/28 05:49:07;;;;;;;10.23;2.30;;;;;10.20;100601.00;;;;9834482;30;20220;-79
2023/12/28 05:54:08;;;;;;;8.27;2.20;;;;;10.20;100601.00;;;;9816176;30;20224;-80
2023/12/28 05:59:10;;;;;;;9.43;2.37;;;;;10.10;100594.00;;;;9844577;29;20216;-81
2023/12/28 06:04:11;;;;;;;15.10;2.03;;;;;10.10;100603.00;;;;9832150;29;20327;-81
2023/12/28 06:09:13;;;;;;;8.60;2.13;;;;;10.10;100600.00;;;;9823494;29;20220;-78
2023/12/28 06:14:14;;;;;;;10.53;2.23;;;;;10.00;100589.00;;;;9827979;29;20224;-81
2023/12/28 06:19:15;;;;;;;10.33;2.33;;;;;10.00;100589.00;;;;9823937;30;20224;-80
2023/12/28 06:24:17;;;;;;;13.50;3.10;;;;;10.00;100592.00;;;;9831624;29;20282;-80
2023/12/28 06:29:18;;;;;;;8.10;1.93;;;;;10.00;100594.00;;;;9840487;29;20227;-81
2023/12/28 06:34:19;;;;;;;12.63;2.10;;;;;10.00;100582.00;;;;9834304;29;20204;-80
2023/12/28 06:39:20;;;;;;;12.37;2.53;;;;;9.90;100607.00;;;;9835671;29;20217;-79
2023/12/28 06:44:22;;;;;;;9.03;2.10;;;;;9.90;100616.00;;;;9838594;29;20315;-80
2023/12/28 06:49:23;;;;;;;11.90;2.17;;;;;9.90;100626.00;;;;9838651;29;20704;-81
2023/12/28 06:54:24;;;;;;;12.43;2.47;;;;;9.80;100623.00;;;;9839852;29;20299;-80
2023/12/28 06:59:25;;;;;;;12.63;2.10;;;;;9.70;100635.00;;;;9833887;29;20301;-80
2023/12/28 07:04:29;;;;;;;7.73;1.93;;;;;9.70;100638.00;;;;9829595;30;20232;-80
2023/12/28 07:09:30;;;;;;;8.47;2.10;;;;;9.70;100633.00;;;;9830032;29;20224;-81
2023/12/28 07:14:31;;;;;;;10.03;2.23;;;;;9.70;100630.00;;;;9844463;29;20880;-81
2023/12/28 07:19:32;;;;;;;12.80;2.90;;;;;9.70;100655.00;;;;9861233;29;20691;-81
2023/12/28 07:24:34;;;;;;;13.40;2.73;;;;;9.70;100649.00;;;;9818070;30;20278;-80
2023/12/28 07:29:35;;;;;;;12.00;2.47;;;;;9.70;100646.00;;;;9820007;29;20232;-82
2023/12/28 07:34:36;;;;;;;13.63;2.70;;;;;9.70;100661.00;;;;9824596;29;20231;-80
2023/12/28 07:39:37;;;;;;;15.37;2.70;;;;;9.70;100659.00;;;;9847280;29;20220;-86
2023/12/28 07:44:39;;;;;;;9.93;2.57;;;;;9.70;100658.00;;;;9829244;30;20267;-85
2023/12/28 07:49:40;;;;;;;10.67;2.10;;;;;9.80;100676.00;;;;9829916;29;20307;-86
2023/12/28 07:54:42;;;;;;;8.60;1.90;;;;;9.80;100659.00;;;;9841904;29;20217;-86
2023/12/28 07:59:44;;;;;;;12.93;2.53;;;;;9.90;100666.00;;;;9818618;30;20215;-85
2023/12/28 08:04:45;;;;;;;16.60;2.43;;;;;9.90;100670.00;;;;9837359;29;20243;-85
2023/12/28 08:09:46;;;;;;;10.00;2.23;;;;;9.90;100680.00;;;;9845878;29;20212;-85
2023/12/28 08:14:47;;;;;;;10.80;2.77;;;;;10.00;100691.00;;;;9826098;29;20301;-86
2023/12/28 08:19:49;;;;;;;17.27;3.20;;;;;10.10;100687.00;;;;9822330;29;20310;-86
2023/12/28 08:24:50;;;;;;;10.63;2.10;;;;;10.20;100696.00;;;;9836188;30;20228;-87
2023/12/28 08:29:51;;;;;;;10.90;2.40;;;;;10.30;100709.00;;;;9860393;29;20224;-86
2023/12/28 08:34:53;;;;;;;16.10;3.13;;;;;10.40;100711.00;;;;9816723;29;20250;-86
2023/12/28 08:39:55;;;;;;;15.03;2.97;;;;;10.50;100703.00;;;;9833530;29;20259;-87
2023/12/28 08:44:56;;;;;;;10.60;3.50;;;;;10.70;100699.00;;;;9815959;29;20833;-85
2023/12/28 08:49:57;;;;;;;10.10;2.10;;;;;10.90;100717.00;;;;9819236;30;20871;-84
2023/12/28 08:55:00;;;;;;;9.00;2.43;;;;;11.00;100713.00;;;;9814012;30;20216;-86
2023/12/28 09:00:05;;;;;;;3.20;1.37;;;;;10.90;100722.00;;;;9828277;29;20494;-85
2023/12/28 09:05:06;;;;;;;12.93;2.77;;;;;11.20;100732.00;;;;9825230;29;20319;-86
2023/12/28 09:10:12;;;;;;;11.57;2.87;;;;;11.20;100743.00;;;;9818730;29;20216;-84
2023/12/28 09:15:13;;;;;;;16.83;3.37;;;;;11.20;100738.00;;;;9814718;30;20304;-86
2023/12/28 09:20:14;;;;;;;15.40;2.50;;;;;11.10;100737.00;;;;9833437;29;20505;-86
2023/12/28 09:25:15;;;;;;;14.20;3.30;;;;;11.20;100726.00;;;;9840455;30;20747;-87
2023/12/28 09:30:17;;;;;;;12.40;3.50;;;;;11.40;100740.00;;;;9805405;30;20243;-86
2023/12/28 09:35:19;;;;;;;14.70;2.30;;;;;11.50;100735.00;;;;9828302;29;20256;-85
2023/12/28 09:40:20;;;;;;;12.50;2.60;;;;;11.70;100744.00;;;;9856594;29;20898;-84
2023/12/28 09:45:21;;;;;;;13.13;3.60;;;;;11.70;100746.00;;;;9827884;30;20231;-84
2023/12/28 09:50:26;;;;;;;13.67;3.20;;;;;11.90;100757.00;;;;9817595;30;20240;-85
2023/12/28 09:55:27;;;;;;;18.27;2.97;;;;;11.90;100763.00;;;;9820388;29;20224;-86
2023/12/28 10:00:29;;;;;;;10.80;2.80;;;;;11.80;100760.00;;;;9831999;29;20278;-85
2023/12/28 10:05:30;;;;;;;11.83;2.10;;;;;11.90;100762.00;;;;9836268;29;20316;-86
2023/12/28 10:10:31;;;;;;;12.77;3.17;;;;;12.20;100765.00;;;;9817901;29;20244;-87
2023/12/28 10:15:32;;;;;;;18.57;6.30;;;;;12.10;100766.00;;;;9834242;29;20256;-87
2023/12/28 10:20:33;;;;;;;14.10;2.50;;;;;12.10;100771.00;;;;9848320;29;20864;-88
2023/12/28 10:25:35;;;;;;;15.63;3.00;;;;;12.10;100764.00;;;;9845408;29;20209;-86
2023/12/28 10:30:37;;;;;;;14.37;2.87;;;;;12.10;100771.00;;;;9852762;29;20217;-88
2023/12/28 10:35:39;;;;;;;14.47;3.50;;;;;12.10;100772.00;;;;9829093;30;20216;-85
2023/12/28 10:40:41;;;;;;;16.15;3.08;;;;;12.20;100762.00;;;;9851552;29;20374;-87
2023/12/28 10:45:46;;;;;;;11.63;3.07;;;;;12.30;100771.00;;;;9838043;29;20997;-87
2023/12/28 10:50:52;;;;;;;11.88;2.58;;;;;12.40;100774.00;;;;9841765;29;20243;-86
2023/12/28 10:56:06;;;;;;;14.43;2.50;;;;;12.60;100753.00;;;;9820784;29;20220;-86
2023/12/28 11:01:10;;;;;;;18.55;2.90;;;;;12.80;100764.00;;;;9834126;30;20328;-86
2023/12/28 11:06:14;;;;;;;12.00;2.65;;;;;13.20;100771.00;;;;9815612;29;20244;-87
2023/12/28 11:11:16;;;;;;;16.23;3.15;;;;;13.10;100768.00;;;;9901216;24;20247;-87
2023/12/28 11:16:18;;;;;;;13.75;2.92;;;;;13.00;100769.00;;;;10110723;24;20256;-87
2023/12/28 11:21:20;;;;;;;13.07;2.55;;;;;12.80;100748.00;;;;10089499;24;20503;-88
2023/12/28 11:26:22;;;;;;;18.33;3.75;;;;;12.70;100742.00;;;;10037476;24;20246;-86
2023/12/28 11:31:26;;;;;;;9.68;2.45;;;;;12.60;100733.00;;;;10143321;24;20297;-86
2023/12/28 11:36:35;;;;;;;10.43;2.55;;;;;12.60;100724.00;;;;9922889;29;20259;-88
2023/12/28 11:41:36;;;;;;;14.70;3.08;;;;;12.60;100718.00;;;;9896727;29;20287;-89
2023/12/28 11:46:37;;;;;;;17.77;3.80;;;;;12.60;100714.00;;;;9922420;29;20226;-86
2023/12/28 11:51:40;;;;;;;15.45;3.13;;;;;12.80;100694.00;;;;9931115;24;20274;-87
2023/12/28 11:56:41;;;;;;;17.40;3.30;;;;;12.90;100691.00;;;;9938557;24;20325;-88
2023/12/28 12:01:42;;;;;;;15.70;3.38;;;;;12.90;100696.00;;;;9825790;30;20229;-86
2023/12/28 12:06:46;;;;;;;16.67;3.50;;;;;13.00;100692.00;;;;9915293;24;20253;-87
2023/12/28 12:11:47;;;;;;;11.23;2.20;;;;;13.10;100685.00;;;;9878938;29;20221;-88
2023/12/28 12:16:49;;;;;;;11.75;2.75;;;;;13.00;100668.00;;;;10007970;24;20233;-88
2023/12/28 12:21:50;;;;;;;12.85;2.60;;;;;13.00;100659.00;;;;10227724;24;20259;-82
2023/12/28 12:26:52;;;;;;;16.25;3.28;;;;;12.90;100665.00;;;;9800090;30;20219;-84
2023/12/28 12:31:53;;;;;;;15.07;3.03;;;;;13.00;100663.00;;;;9815278;30;20225;-83
2023/12/28 12:36:55;;;;;;;20.38;3.60;;;;;13.00;100652.00;;;;9833765;29;20223;-83
2023/12/28 12:41:57;;;;;;;13.57;2.75;;;;;12.90;100647.00;;;;9834315;30;20323;-83
2023/12/28 12:46:59;;;;;;;16.20;2.50;;;;;12.70;100648.00;;;;9825372;30;20580;-83
2023/12/28 12:52:01;;;;;;;14.85;3.72;;;;;12.60;100658.00;;;;9805595;30;20741;-82
2023/12/28 12:57:06;;;;;;;8.75;2.13;;;;;12.50;100643.00;;;;9801984;30;20228;-82
2023/12/28 13:02:08;;;;;;;12.32;2.50;;;;;12.40;100645.00;;;;9825175;29;20306;-82
2023/12/28 13:07:09;;;;;;;15.17;2.13;;;;;12.30;100636.00;;;;9812079;30;20234;-82
2023/12/28 13:12:10;;;;;;;11.40;2.72;;;;;12.30;100615.00;;;;9801826;30;20227;-82
2023/12/28 13:17:12;;;;;;;14.23;2.80;;;;;12.20;100625.00;;;;9824133;30;20715;-83
2023/12/28 13:22:13;;;;;;;9.88;2.28;;;;;12.20;100633.00;;;;9809966;30;20224;-82
2023/12/28 13:27:15;;;;;;;7.93;2.47;;;;;12.20;100623.00;;;;9817501;30;20632;-82
2023/12/28 13:32:16;;;;;;;7.57;2.03;;;;;12.30;100625.00;;;;9815709;30;21240;-83
2023/12/28 13:37:17;;;;;;;18.45;2.83;;;;;12.30;100642.00;;;;9804435;30;20719;-82
2023/12/28 13:42:18;;;;;;;13.75;2.92;;;;;12.20;100640.00;;;;9790816;30;22217;-81
2023/12/28 13:47:20;;;;;;;16.30;3.03;;;;;12.00;100639.00;;;;9817666;30;20230;-82
2023/12/28 13:52:21;;;;;;;10.18;2.70;;;;;12.00;100625.00;;;;9794056;30;20244;-83
2023/12/28 13:57:22;;;;;;;11.77;2.40;;;;;12.00;100630.00;;;;9819393;30;20248;-82
2023/12/28 14:02:23;;;;;;;9.90;2.47;;;;;11.90;100621.00;;;;9816980;30;20236;-82
2023/12/28 14:07:25;;;;;;;14.73;2.63;;;;;11.90;100628.00;;;;9791538;30;20243;-82
2023/12/28 14:12:26;;;;;;;10.48;2.72;;;;;11.80;100633.00;;;;9798988;30;20231;-84
2023/12/28 14:17:27;;;;;;;13.27;2.60;;;;;11.80;100628.00;;;;9814551;30;20227;-82
2023/12/28 14:22:29;;;;;;;12.43;2.53;;;;;11.70;100633.00;;;;9804242;30;20326;-82
2023/12/28 14:27:30;;;;;;;16.47;2.23;;;;;11.70;100631.00;;;;9808873;30;20312;-84
2023/12/28 14:32:32;;;;;;;12.73;2.60;;;;;11.60;100629.00;;;;9806283;30;20213;-82
2023/12/28 14:37:33;;;;;;;9.23;2.15;;;;;11.60;100618.00;;;;9789910;30;20220;-84
2023/12/28 14:42:34;;;;;;;11.33;2.63;;;;;11.50;100632.00;;;;9836134;30;20237;-82
2023/12/28 14:47:36;;;;;;;12.37;2.57;;;;;11.50;100605.00;;;;9809447;29;20217;-79
2023/12/28 14:52:42;;;;;;;5.93;1.77;;;;;11.40;100611.00;;;;9832326;30;20217;-81
2023/12/28 14:57:44;;;;;;;15.00;2.93;;;;;11.30;100615.00;;;;9820190;30;20256;-80
2023/12/28 15:02:45;;;;;;;11.73;3.00;;;;;11.20;100612.00;;;;9827975;30;21092;-80
2023/12/28 15:07:48;;;;;;;11.77;2.00;;;;;11.10;100599.00;;;;9803552;30;20231;-83
2023/12/28 15:12:49;;;;;;;8.07;1.80;;;;;11.00;100600.00;;;;9806389;30;20876;-79
2023/12/28 15:17:51;;;;;;;11.07;2.10;;;;;11.00;100599.00;;;;9808629;30;20244;-79
2023/12/28 15:22:52;;;;;;;16.20;2.43;;;;;10.80;100593.00;;;;9811181;30;20251;-80
2023/12/28 15:27:54;;;;;;;9.13;2.47;;;;;10.80;100595.00;;;;9809342;30;20217;-80
2023/12/28 15:32:56;;;;;;;11.20;1.50;;;;;10.70;100577.00;;;;9817779;30;20588;-79
2023/12/28 15:37:57;;;;;;;7.90;1.83;;;;;10.70;100590.00;;;;9806512;30;20277;-80
2023/12/28 15:42:59;;;;;;;14.23;2.50;;;;;10.80;100583.00;;;;9809455;30;20241;-81
2023/12/28 15:48:01;;;;;;;11.20;2.10;;;;;10.70;100583.00;;;;9816152;30;20270;-79
2023/12/28 15:53:03;;;;;;;12.10;2.03;;;;;10.70;100583.00;;;;9809218;30;20218;-80
2023/12/28 15:58:04;;;;;;;13.53;2.63;;;;;10.70;100596.00;;;;9796945;30;20332;-78
2023/12/28 16:03:06;;;;;;;8.37;2.30;;;;;10.70;100597.00;;;;9791766;30;20332;-79
2023/12/28 16:08:07;;;;;;;12.93;2.73;;;;;10.60;100596.00;;;;9822786;30;20220;-79
2023/12/28 16:13:08;;;;;;;7.53;2.20;;;;;10.60;100598.00;;;;9805450;30;20278;-81
2023/12/28 16:18:10;;;;;;;12.67;2.53;;;;;10.60;100597.00;;;;9818318;30;20685;-79
2023/12/28 16:23:12;;;;;;;12.40;2.23;;;;;10.60;100595.00;;;;9797073;30;20330;-80
2023/12/28 16:28:13;;;;;;;6.87;1.93;;;;;10.60;100607.00;;;;9827064;29;20259;-81
2023/12/28 16:33:15;;;;;;;9.43;2.50;;;;;10.70;100591.00;;;;9801239;30;20216;-80
2023/12/28 16:38:17;;;;;;;16.47;3.30;;;;;10.70;100595.00;;;;9808070;30;20788;-79
2023/12/28 16:43:18;;;;;;;15.63;2.53;;;;;10.80;100596.00;;;;9819852;30;20671;-79
2023/12/28 16:48:19;;;;;;;10.00;2.40;;;;;10.80;100578.00;;;;9813065;30;20717;-79
2023/12/28 16:53:21;;;;;;;10.33;2.10;;;;;10.80;100589.00;;;;9802845;30;20221;-79
2023/12/28 16:58:22;;;;;;;10.87;1.90;;;;;10.80;100594.00;;;;9832407;30;20270;-81
2023/12/28 17:03:23;;;;;;;9.50;1.73;;;;;10.90;100596.00;;;;9806139;30;20320;-79
2023/12/28 17:08:25;;;;;;;10.27;2.23;;;;;10.90;100580.00;;;;9801543;30;20251;-79
2023/12/28 17:13:26;;;;;;;12.73;2.77;;;;;10.90;100578.00;;;;9795947;30;20233;-79
2023/12/28 17:18:28;;;;;;;11.03;2.37;;;;;10.80;100582.00;;;;9794301;30;20212;-79
2023/12/28 17:23:37;;;;;;;13.07;2.40;;;;;10.80;100553.00;;;;9806313;30;20963;-81
2023/12/28 17:28:58;;;;;;;12.07;2.00;;;;;10.70;100575.00;;;;9822484;30;20235;-80
2023/12/28 17:34:01;;;;;;;9.00;2.97;;;;;10.70;100573.00;;;;9803964;30;20224;-80
2023/12/28 17:39:06;;;;;;;9.50;2.80;;;;;10.60;100573.00;;;;9806381;30;20221;-79
2023/12/28 17:44:13;;;;;;;11.43;2.53;;;;;10.60;100586.00;;;;9816912;30;20241;-78
2023/12/28 17:49:23;;;;;;;10.27;2.37;;;;;10.60;100579.00;;;;9793713;30;20278;-78
2023/12/28 17:54:25;;;;;;;11.13;2.33;;;;;10.60;100588.00;;;;9809841;30;20212;-78
2023/12/28 17:59:26;;;;;;;6.70;2.10;;;;;10.60;100597.00;;;;9798807;30;20233;-81
2023/12/28 18:04:31;;;;;;;5.73;2.20;;;;;10.70;100597.00;;;;9803120;30;20260;-80
2023/12/28 18:09:36;;;;;;;12.97;2.83;;;;;10.70;100598.00;;;;9791821;30;20236;-86
2023/12/28 18:14:37;;;;;;;11.00;2.20;;;;;10.60;100586.00;;;;9799371;29;20232;-86
2023/12/28 18:19:38;;;;;;;11.33;2.53;;;;;10.60;100595.00;;;;9799694;30;20321;-85
2023/12/28 18:24:40;;;;;;;8.87;2.47;;;;;10.60;100586.00;;;;9785628;30;20239;-86
2023/12/28 18:29:41;;;;;;;13.23;2.70;;;;;10.60;100572.00;;;;9783436;30;20316;-86
2023/12/28 18:34:46;;;;;;;7.77;2.57;;;;;10.60;100570.00;;;;9806185;29;20309;-87
2023/12/28 18:39:47;;;;;;;8.60;2.07;;;;;10.50;100561.00;;;;9800016;30;20295;-88
2023/12/28 18:44:49;;;;;;;7.87;2.10;;;;;10.40;100563.00;;;;9827494;29;20863;-87
2023/12/28 18:49:50;;;;;;;6.80;1.67;;;;;10.20;100570.00;;;;9791525;30;20232;-88
2023/12/28 18:54:51;;;;;;;9.10;2.63;;;;;10.30;100572.00;;;;9819655;30;20240;-87
2023/12/28 18:59:52;;;;;;;9.10;2.50;;;;;10.40;100579.00;;;;9811761;30;20244;-85
2023/12/28 19:04:54;;;;;;;10.63;2.70;;;;;10.40;100570.00;;;;9801619;30;20943;-86
2023/12/28 19:09:55;;;;;;;7.70;2.30;;;;;10.40;100572.00;;;;9791489;30;20240;-86
2023/12/28 19:14:56;;;;;;;7.97;2.37;;;;;10.40;100570.00;;;;9796934;30;20279;-86
2023/12/28 19:19:57;;;;;;;10.33;2.60;;;;;10.40;100583.00;;;;9801205;30;20290;-79
2023/12/28 19:24:59;;;;;;;7.20;2.33;;;;;10.50;100559.00;;;;9799549;30;20243;-78
2023/12/28 19:30:01;;;;;;;6.27;2.77;;;;;10.50;100552.00;;;;9781482;30;20588;-80
2023/12/28 19:35:03;;;;;;;9.13;2.60;;;;;10.40;100550.00;;;;9779475;30;20266;-79
2023/12/28 19:40:06;;;;;;;7.63;2.37;;;;;10.40;100546.00;;;;9789389;30;20271;-80
2023/12/28 19:45:08;;;;;;;3.77;1.60;;;;;10.40;100552.00;;;;9781912;30;20836;-79
2023/12/28 19:50:10;;;;;;;6.47;2.20;;;;;10.30;100538.00;;;;9803578;30;20919;-79
2023/12/28 19:55:11;;;;;;;5.63;1.57;;;;;10.30;100541.00;;;;9805520;30;20667;-79
2023/12/28 20:00:13;;;;;;;11.93;2.13;;;;;10.40;100531.00;;;;9787953;30;20245;-82
2023/12/28 20:05:16;;;;;;;8.60;1.97;;;;;10.50;100518.00;;;;9799311;30;20239;-80
2023/12/28 20:10:17;;;;;;;5.80;1.93;;;;;10.60;100511.00;;;;9798843;30;20252;-80
2023/12/28 20:15:21;;;;;;;5.53;1.87;;;;;10.60;100515.00;;;;9788675;29;20236;-79
2023/12/28 20:20:22;;;;;;;10.90;1.97;;;;;10.70;100513.00;;;;9793938;30;20239;-79
2023/12/28 20:25:24;;;;;;;7.87;2.63;;;;;10.70;100517.00;;;;9794252;29;20278;-81
2023/12/28 20:30:27;;;;;;;6.50;2.50;;;;;10.70;100505.00;;;;9801758;30;20276;-82
2023/12/28 20:35:32;;;;;;;6.50;1.90;;;;;10.70;100505.00;;;;9820289;30;20257;-81
2023/12/28 20:40:34;;;;;;;8.90;2.00;;;;;10.70;100517.00;;;;9800934;30;20241;-82
2023/12/28 20:45:35;;;;;;;13.40;2.30;;;;;10.60;100510.00;;;;9770606;30;21011;-83
2023/12/28 20:50:36;;;;;;;9.27;2.00;;;;;10.60;100494.00;;;;9808526;30;20241;-82
2023/12/28 20:55:38;;;;;;;7.87;2.17;;;;;10.60;100508.00;;;;9777880;30;20237;-81
2023/12/28 21:00:39;;;;;;;9.90;1.80;;;;;10.60;100504.00;;;;9810685;30;20277;-82
2023/12/28 21:05:40;;;;;;;8.37;2.00;;;;;10.60;100517.00;;;;9798341;30;20805;-83
2023/12/28 21:10:41;;;;;;;7.57;2.40;;;;;10.60;100526.00;;;;9798927;30;20241;-81
2023/12/28 21:15:42;;;;;;;10.77;2.53;;;;;10.60;100505.00;;;;9783661;29;20947;-83
2023/12/28 21:20:44;;;;;;;11.63;1.90;;;;;10.60;100499.00;;;;9781786;30;20243;-82
2023/12/28 21:26:05;;;;;;;7.07;2.27;;;;;10.60;100529.00;;;;9789067;30;20245;-81
2023/12/28 21:31:06;;;;;;;7.97;2.30;;;;;10.60;100492.00;;;;9798061;30;20326;-81
2023/12/28 21:36:08;;;;;;;8.57;2.00;;;;;10.60;100494.00;;;;9784204;29;20241;-81
2023/12/28 21:41:09;;;;;;;8.77;2.07;;;;;10.60;100501.00;;;;9793238;30;20236;-85
2023/12/28 21:46:10;;;;;;;10.33;1.93;;;;;10.70;100490.00;;;;9788702;30;20244;-85
2023/12/28 21:51:12;;;;;;;6.23;1.43;;;;;10.80;100494.00;;;;9814612;30;20334;-85
2023/12/28 21:56:13;;;;;;;9.83;2.57;;;;;10.70;100483.00;;;;9801954;30;20232;-85
2023/12/28 22:01:15;;;;;;;5.60;1.87;;;;;10.70;100489.00;;;;9788426;30;20243;-85
2023/12/28 22:06:17;;;;;;;12.67;2.63;;;;;10.70;100490.00;;;;9818203;30;20229;-86
2023/12/28 22:11:18;;;;;;;8.80;2.10;;;;;10.70;100474.00;;;;9806672;30;20252;-85
2023/12/28 22:16:19;;;;;;;11.30;2.27;;;;;10.80;100490.00;;;;9802672;30;20252;-88
2023/12/28 22:21:21;;;;;;;8.57;2.37;;;;;10.80;100509.00;;;;9791351;29;20758;-86
2023/12/28 22:26:23;;;;;;;9.63;2.30;;;;;10.80;100517.00;;;;9806627;29;20692;-86
2023/12/28 22:31:24;;;;;;;9.87;2.10;;;;;10.80;100506.00;;;;9794359;30;20296;-86
2023/12/28 22:36:25;;;;;;;5.43;1.80;;;;;10.80;100523.00;;;;9789635;30;20232;-85
2023/12/28 22:41:27;;;;;;;9.43;2.17;;;;;10.80;100526.00;;;;9817247;30;20251;-86
2023/12/28 22:46:28;;;;;;;9.17;2.20;;;;;10.70;100510.00;;;;9792355;30;20229;-86
2023/12/28 22:51:29;;;;;;;6.70;1.83;;;;;10.80;100505.00;;;;9804381;29;20282;-87
2023/12/28 22:56:30;;;;;;;10.93;1.90;;;;;10.80;100508.00;;;;9794290;30;20237;-86
2023/12/28 23:01:31;;;;;;;6.43;1.77;;;;;10.80;100492.00;;;;9792944;30;20324;-87
2023/12/28 23:06:33;;;;;;;2.73;1.33;;;;;10.80;100476.00;;;;9801140;30;20253;-86
2023/12/28 23:11:34;;;;;;;10.50;2.17;;;;;10.90;100484.00;;;;9783234;30;20642;-85
2023/12/28 23:16:35;;;;;;;6.07;2.13;;;;;10.80;100488.00;;;;9804923;29;20908;-86
2023/12/28 23:21:36;;;;;;;8.20;1.77;;;;;10.80;100469.00;;;;9832109;29;20237;-87
2023/12/28 23:26:38;;;;;;;7.90;1.93;;;;;10.70;100462.00;;;;9801854;30;20298;-87
2023/12/28 23:31:39;;;;;;;7.57;2.03;;;;;10.80;100473.00;;;;9813983;30;20663;-87
2023/12/28 23:36:41;;;;;;;11.37;2.33;;;;;10.70;100471.00;;;;9794289;30;20236;-85
2023/12/28 23:41:43;;;;;;;7.43;1.70;;;;;10.70;100469.00;;;;9803121;30;20237;-84
2023/12/28 23:46:44;;;;;;;5.63;1.80;;;;;10.60;100469.00;;;;9818153;30;20279;-85
2023/12/28 23:51:45;;;;;;;8.07;1.63;;;;;10.70;100475.00;;;;9815647;29;20240;-85
2023/12/28 23:56:46;;;;;;;5.10;1.73;;;;;10.70;100472.00;;;;9801747;30;20291;-85
